sensor_id;sensor_type;location;lat;lon;timestamp;P1;durP1;ratioP1;P2;durP2;ratioP2
16954;SDS011;8594;52.052;8.354;2023-03-05T00:00:08;11.13;;;3.40;;
16954;SDS011;8594;52.052;8.354;2023-03-05T00:02:38;18.37;;;3.57;;
16954;SDS011;8594;52.052;8.354;2023-03-05T00:05:06;13.20;;;3.33;;
16954;SDS011;8594;52.052;8.354;2023-03-05T00:07:35;13.80;;;3.20;;
16954;SDS011;8594;52.052;8.354;2023-03-05T00:10:02;10.77;;;3.20;;
16954;SDS011;8594;52.052;8.354;2023-03-05T00:12:31;8.20;;;2.80;;
16954;SDS011;8594;52.052;8.354;2023-03-05T00:14:58;13.63;;;3.50;;
16954;SDS011;8594;52.052;8.354;2023-03-05T00:17:25;13.63;;;3.20;;
16954;SDS011;8594;52.052;8.354;2023-03-05T00:19:51;16.17;;;3.10;;
16954;SDS011;8594;52.052;8.354;2023-03-05T00:22:18;20.67;;;2.97;;
16954;SDS011;8594;52.052;8.354;2023-03-05T00:24:48;12.47;;;3.17;;
16954;SDS011;8594;52.052;8.354;2023-03-05T00:27:15;18.10;;;3.90;;
16954;SDS011;8594;52.052;8.354;2023-03-05T00:29:42;16.13;;;3.53;;
16954;SDS011;8594;52.052;8.354;2023-03-05T00:32:09;12.13;;;3.20;;
16954;SDS011;8594;52.052;8.354;2023-03-05T00:34:36;12.23;;;3.17;;
16954;SDS011;8594;52.052;8.354;2023-03-05T00:37:03;21.00;;;4.23;;
16954;SDS011;8594;52.052;8.354;2023-03-05T00:39:31;18.27;;;3.20;;
16954;SDS011;8594;52.052;8.354;2023-03-05T00:42:00;17.17;;;3.37;;
16954;SDS011;8594;52.052;8.354;2023-03-05T00:44:26;10.13;;;2.97;;
16954;SDS011;8594;52.052;8.354;2023-03-05T00:46:53;10.13;;;2.93;;
16954;SDS011;8594;52.052;8.354;2023-03-05T00:49:20;21.27;;;3.80;;
16954;SDS011;8594;52.052;8.354;2023-03-05T00:51:47;11.90;;;3.87;;
16954;SDS011;8594;52.052;8.354;2023-03-05T00:54:14;14.20;;;3.20;;
16954;SDS011;8594;52.052;8.354;2023-03-05T00:56:41;11.13;;;3.13;;
16954;SDS011;8594;52.052;8.354;2023-03-05T00:59:10;11.27;;;3.50;;
16954;SDS011;8594;52.052;8.354;2023-03-05T01:01:37;13.63;;;3.03;;
16954;SDS011;8594;52.052;8.354;2023-03-05T01:04:04;14.40;;;3.47;;
16954;SDS011;8594;52.052;8.354;2023-03-05T01:06:31;16.57;;;3.30;;
16954;SDS011;8594;52.052;8.354;2023-03-05T01:08:58;20.63;;;4.00;;
16954;SDS011;8594;52.052;8.354;2023-03-05T01:11:24;15.27;;;3.37;;
16954;SDS011;8594;52.052;8.354;2023-03-05T01:13:51;16.90;;;3.77;;
16954;SDS011;8594;52.052;8.354;2023-03-05T01:16:19;13.20;;;2.70;;
16954;SDS011;8594;52.052;8.354;2023-03-05T01:18:46;8.93;;;2.83;;
16954;SDS011;8594;52.052;8.354;2023-03-05T01:21:13;18.30;;;3.60;;
16954;SDS011;8594;52.052;8.354;2023-03-05T01:23:40;10.70;;;2.70;;
16954;SDS011;8594;52.052;8.354;2023-03-05T01:26:07;12.50;;;3.13;;
16954;SDS011;8594;52.052;8.354;2023-03-05T01:28:34;10.73;;;2.97;;
16954;SDS011;8594;52.052;8.354;2023-03-05T01:31:05;9.30;;;2.90;;
16954;SDS011;8594;52.052;8.354;2023-03-05T01:33:35;15.03;;;3.37;;
16954;SDS011;8594;52.052;8.354;2023-03-05T01:36:05;13.87;;;3.23;;
16954;SDS011;8594;52.052;8.354;2023-03-05T01:38:36;18.60;;;3.47;;
16954;SDS011;8594;52.052;8.354;2023-03-05T01:41:03;12.47;;;2.70;;
16954;SDS011;8594;52.052;8.354;2023-03-05T01:43:30;11.07;;;2.73;;
16954;SDS011;8594;52.052;8.354;2023-03-05T01:46:16;14.60;;;2.70;;
16954;SDS011;8594;52.052;8.354;2023-03-05T01:49:03;15.63;;;2.97;;
16954;SDS011;8594;52.052;8.354;2023-03-05T01:51:37;20.17;;;2.90;;
16954;SDS011;8594;52.052;8.354;2023-03-05T01:54:09;14.00;;;2.93;;
16954;SDS011;8594;52.052;8.354;2023-03-05T01:56:40;15.23;;;3.17;;
16954;SDS011;8594;52.052;8.354;2023-03-05T01:59:09;16.43;;;2.63;;
16954;SDS011;8594;52.052;8.354;2023-03-05T02:01:38;15.67;;;3.63;;
16954;SDS011;8594;52.052;8.354;2023-03-05T02:04:12;17.50;;;2.57;;
16954;SDS011;8594;52.052;8.354;2023-03-05T02:06:43;13.63;;;2.63;;
16954;SDS011;8594;52.052;8.354;2023-03-05T02:09:12;13.13;;;2.87;;
16954;SDS011;8594;52.052;8.354;2023-03-05T02:11:39;16.00;;;3.07;;
16954;SDS011;8594;52.052;8.354;2023-03-05T02:14:06;14.27;;;2.83;;
16954;SDS011;8594;52.052;8.354;2023-03-05T02:16:34;10.67;;;2.90;;
16954;SDS011;8594;52.052;8.354;2023-03-05T02:19:03;12.00;;;2.80;;
16954;SDS011;8594;52.052;8.354;2023-03-05T02:21:37;15.30;;;3.30;;
16954;SDS011;8594;52.052;8.354;2023-03-05T02:24:08;12.27;;;3.40;;
16954;SDS011;8594;52.052;8.354;2023-03-05T02:26:38;15.57;;;3.00;;
16954;SDS011;8594;52.052;8.354;2023-03-05T02:29:07;14.07;;;3.10;;
16954;SDS011;8594;52.052;8.354;2023-03-05T02:31:37;10.23;;;2.83;;
16954;SDS011;8594;52.052;8.354;2023-03-05T02:34:04;12.33;;;2.80;;
16954;SDS011;8594;52.052;8.354;2023-03-05T02:36:31;9.37;;;2.97;;
16954;SDS011;8594;52.052;8.354;2023-03-05T02:39:00;15.93;;;2.73;;
16954;SDS011;8594;52.052;8.354;2023-03-05T02:41:27;12.97;;;2.80;;
16954;SDS011;8594;52.052;8.354;2023-03-05T02:43:54;11.37;;;2.70;;
16954;SDS011;8594;52.052;8.354;2023-03-05T02:46:21;14.63;;;2.90;;
16954;SDS011;8594;52.052;8.354;2023-03-05T02:48:47;12.60;;;2.70;;
16954;SDS011;8594;52.052;8.354;2023-03-05T02:51:15;10.93;;;3.53;;
16954;SDS011;8594;52.052;8.354;2023-03-05T02:53:42;16.97;;;3.60;;
16954;SDS011;8594;52.052;8.354;2023-03-05T02:56:10;13.20;;;3.27;;
16954;SDS011;8594;52.052;8.354;2023-03-05T02:58:37;12.37;;;2.83;;
16954;SDS011;8594;52.052;8.354;2023-03-05T03:01:04;10.87;;;3.27;;
16954;SDS011;8594;52.052;8.354;2023-03-05T03:03:31;13.40;;;3.10;;
16954;SDS011;8594;52.052;8.354;2023-03-05T03:05:58;9.93;;;2.53;;
16954;SDS011;8594;52.052;8.354;2023-03-05T03:08:25;8.73;;;2.73;;
16954;SDS011;8594;52.052;8.354;2023-03-05T03:10:52;17.07;;;2.80;;
16954;SDS011;8594;52.052;8.354;2023-03-05T03:13:21;11.63;;;2.73;;
16954;SDS011;8594;52.052;8.354;2023-03-05T03:15:49;14.30;;;2.87;;
16954;SDS011;8594;52.052;8.354;2023-03-05T03:18:16;8.50;;;2.53;;
16954;SDS011;8594;52.052;8.354;2023-03-05T03:20:42;8.93;;;2.60;;
16954;SDS011;8594;52.052;8.354;2023-03-05T03:23:09;12.73;;;2.53;;
16954;SDS011;8594;52.052;8.354;2023-03-05T03:25:36;18.33;;;3.50;;
16954;SDS011;8594;52.052;8.354;2023-03-05T03:28:03;21.53;;;2.87;;
16954;SDS011;8594;52.052;8.354;2023-03-05T03:30:31;15.43;;;3.03;;
16954;SDS011;8594;52.052;8.354;2023-03-05T03:32:58;10.83;;;3.07;;
16954;SDS011;8594;52.052;8.354;2023-03-05T03:35:24;13.47;;;3.20;;
16954;SDS011;8594;52.052;8.354;2023-03-05T03:37:51;15.37;;;3.13;;
16954;SDS011;8594;52.052;8.354;2023-03-05T03:40:18;10.80;;;2.80;;
16954;SDS011;8594;52.052;8.354;2023-03-05T03:42:45;11.83;;;2.83;;
16954;SDS011;8594;52.052;8.354;2023-03-05T03:45:12;12.47;;;3.20;;
16954;SDS011;8594;52.052;8.354;2023-03-05T03:47:41;17.03;;;3.60;;
16954;SDS011;8594;52.052;8.354;2023-03-05T03:50:09;18.53;;;3.47;;
16954;SDS011;8594;52.052;8.354;2023-03-05T03:52:37;11.47;;;3.27;;
16954;SDS011;8594;52.052;8.354;2023-03-05T03:55:04;12.10;;;3.40;;
16954;SDS011;8594;52.052;8.354;2023-03-05T03:57:32;14.83;;;3.47;;
16954;SDS011;8594;52.052;8.354;2023-03-05T03:59:58;16.33;;;2.70;;
16954;SDS011;8594;52.052;8.354;2023-03-05T04:02:25;13.47;;;2.93;;
16954;SDS011;8594;52.052;8.354;2023-03-05T04:04:54;8.37;;;2.90;;
16954;SDS011;8594;52.052;8.354;2023-03-05T04:07:21;16.00;;;3.33;;
16954;SDS011;8594;52.052;8.354;2023-03-05T04:09:50;11.10;;;3.00;;
16954;SDS011;8594;52.052;8.354;2023-03-05T04:12:17;6.87;;;3.33;;
16954;SDS011;8594;52.052;8.354;2023-03-05T04:14:44;9.00;;;3.03;;
16954;SDS011;8594;52.052;8.354;2023-03-05T04:17:11;12.30;;;3.43;;
16954;SDS011;8594;52.052;8.354;2023-03-05T04:19:40;17.37;;;3.43;;
16954;SDS011;8594;52.052;8.354;2023-03-05T04:22:10;10.77;;;3.03;;
16954;SDS011;8594;52.052;8.354;2023-03-05T04:24:39;9.17;;;3.20;;
16954;SDS011;8594;52.052;8.354;2023-03-05T04:27:06;12.20;;;2.77;;
16954;SDS011;8594;52.052;8.354;2023-03-05T04:29:34;12.97;;;4.13;;
16954;SDS011;8594;52.052;8.354;2023-03-05T04:32:01;14.30;;;3.23;;
16954;SDS011;8594;52.052;8.354;2023-03-05T04:34:28;7.37;;;2.43;;
16954;SDS011;8594;52.052;8.354;2023-03-05T04:36:56;11.10;;;2.60;;
16954;SDS011;8594;52.052;8.354;2023-03-05T04:39:25;18.27;;;3.30;;
16954;SDS011;8594;52.052;8.354;2023-03-05T04:41:51;8.20;;;3.13;;
16954;SDS011;8594;52.052;8.354;2023-03-05T04:44:18;9.67;;;2.87;;
16954;SDS011;8594;52.052;8.354;2023-03-05T04:46:47;11.23;;;3.33;;
16954;SDS011;8594;52.052;8.354;2023-03-05T04:49:14;9.17;;;2.40;;
16954;SDS011;8594;52.052;8.354;2023-03-05T04:51:40;10.33;;;3.17;;
16954;SDS011;8594;52.052;8.354;2023-03-05T04:54:07;11.20;;;2.50;;
16954;SDS011;8594;52.052;8.354;2023-03-05T04:56:35;12.90;;;2.63;;
16954;SDS011;8594;52.052;8.354;2023-03-05T04:59:02;11.53;;;2.60;;
16954;SDS011;8594;52.052;8.354;2023-03-05T05:01:29;4.77;;;2.37;;
16954;SDS011;8594;52.052;8.354;2023-03-05T05:03:56;12.87;;;2.57;;
16954;SDS011;8594;52.052;8.354;2023-03-05T05:06:23;10.20;;;2.50;;
16954;SDS011;8594;52.052;8.354;2023-03-05T05:08:50;10.33;;;2.70;;
16954;SDS011;8594;52.052;8.354;2023-03-05T05:11:17;10.77;;;2.60;;
16954;SDS011;8594;52.052;8.354;2023-03-05T05:13:45;9.30;;;2.53;;
16954;SDS011;8594;52.052;8.354;2023-03-05T05:16:12;6.87;;;2.57;;
16954;SDS011;8594;52.052;8.354;2023-03-05T05:18:39;9.33;;;3.20;;
16954;SDS011;8594;52.052;8.354;2023-03-05T05:21:06;10.50;;;2.90;;
16954;SDS011;8594;52.052;8.354;2023-03-05T05:23:34;14.93;;;3.10;;
16954;SDS011;8594;52.052;8.354;2023-03-05T05:26:02;10.17;;;2.90;;
16954;SDS011;8594;52.052;8.354;2023-03-05T05:28:30;8.57;;;2.50;;
16954;SDS011;8594;52.052;8.354;2023-03-05T05:30:59;8.67;;;3.17;;
16954;SDS011;8594;52.052;8.354;2023-03-05T05:33:31;7.40;;;2.53;;
16954;SDS011;8594;52.052;8.354;2023-03-05T05:35:57;10.67;;;2.83;;
16954;SDS011;8594;52.052;8.354;2023-03-05T05:38:24;9.33;;;3.23;;
16954;SDS011;8594;52.052;8.354;2023-03-05T05:40:51;8.93;;;2.67;;
16954;SDS011;8594;52.052;8.354;2023-03-05T05:43:18;8.80;;;2.90;;
16954;SDS011;8594;52.052;8.354;2023-03-05T05:45:45;9.50;;;2.80;;
16954;SDS011;8594;52.052;8.354;2023-03-05T05:48:13;8.07;;;2.80;;
16954;SDS011;8594;52.052;8.354;2023-03-05T05:50:40;8.43;;;3.00;;
16954;SDS011;8594;52.052;8.354;2023-03-05T05:53:06;5.73;;;2.90;;
16954;SDS011;8594;52.052;8.354;2023-03-05T05:55:33;10.20;;;3.03;;
16954;SDS011;8594;52.052;8.354;2023-03-05T05:58:00;9.60;;;3.20;;
16954;SDS011;8594;52.052;8.354;2023-03-05T06:00:27;10.20;;;3.53;;
16954;SDS011;8594;52.052;8.354;2023-03-05T06:02:54;7.17;;;2.93;;
16954;SDS011;8594;52.052;8.354;2023-03-05T06:05:22;8.13;;;2.97;;
16954;SDS011;8594;52.052;8.354;2023-03-05T06:07:49;13.67;;;3.40;;
16954;SDS011;8594;52.052;8.354;2023-03-05T06:10:16;8.67;;;2.70;;
16954;SDS011;8594;52.052;8.354;2023-03-05T06:12:43;9.83;;;3.00;;
16954;SDS011;8594;52.052;8.354;2023-03-05T06:15:10;7.83;;;2.67;;
16954;SDS011;8594;52.052;8.354;2023-03-05T06:17:37;11.57;;;3.37;;
16954;SDS011;8594;52.052;8.354;2023-03-05T06:20:04;4.77;;;2.83;;
16954;SDS011;8594;52.052;8.354;2023-03-05T06:22:35;12.83;;;3.40;;
16954;SDS011;8594;52.052;8.354;2023-03-05T06:25:04;14.00;;;3.03;;
16954;SDS011;8594;52.052;8.354;2023-03-05T06:27:33;6.57;;;3.00;;
16954;SDS011;8594;52.052;8.354;2023-03-05T06:30:00;7.57;;;3.03;;
16954;SDS011;8594;52.052;8.354;2023-03-05T06:32:28;8.47;;;2.63;;
16954;SDS011;8594;52.052;8.354;2023-03-05T06:34:55;8.70;;;3.60;;
16954;SDS011;8594;52.052;8.354;2023-03-05T06:37:22;13.77;;;4.40;;
16954;SDS011;8594;52.052;8.354;2023-03-05T06:39:50;17.10;;;3.50;;
16954;SDS011;8594;52.052;8.354;2023-03-05T06:42:17;8.73;;;2.90;;
16954;SDS011;8594;52.052;8.354;2023-03-05T06:44:44;8.13;;;3.07;;
16954;SDS011;8594;52.052;8.354;2023-03-05T06:47:11;8.53;;;2.90;;
16954;SDS011;8594;52.052;8.354;2023-03-05T06:49:38;10.70;;;4.73;;
16954;SDS011;8594;52.052;8.354;2023-03-05T06:52:06;15.17;;;3.60;;
16954;SDS011;8594;52.052;8.354;2023-03-05T06:54:34;13.23;;;3.87;;
16954;SDS011;8594;52.052;8.354;2023-03-05T06:57:03;13.13;;;3.70;;
16954;SDS011;8594;52.052;8.354;2023-03-05T06:59:29;16.00;;;3.30;;
16954;SDS011;8594;52.052;8.354;2023-03-05T07:01:56;12.17;;;3.63;;
16954;SDS011;8594;52.052;8.354;2023-03-05T07:04:23;11.23;;;3.47;;
16954;SDS011;8594;52.052;8.354;2023-03-05T07:06:50;9.17;;;3.00;;
16954;SDS011;8594;52.052;8.354;2023-03-05T07:09:17;9.73;;;3.30;;
16954;SDS011;8594;52.052;8.354;2023-03-05T07:11:45;7.90;;;3.20;;
16954;SDS011;8594;52.052;8.354;2023-03-05T07:14:13;13.20;;;3.50;;
16954;SDS011;8594;52.052;8.354;2023-03-05T07:16:39;8.63;;;2.93;;
16954;SDS011;8594;52.052;8.354;2023-03-05T07:19:06;8.03;;;2.80;;
16954;SDS011;8594;52.052;8.354;2023-03-05T07:21:34;7.93;;;3.07;;
16954;SDS011;8594;52.052;8.354;2023-03-05T07:24:02;7.83;;;2.70;;
16954;SDS011;8594;52.052;8.354;2023-03-05T07:26:31;9.87;;;3.47;;
16954;SDS011;8594;52.052;8.354;2023-03-05T07:28:58;11.50;;;2.73;;
16954;SDS011;8594;52.052;8.354;2023-03-05T07:31:27;7.70;;;2.93;;
16954;SDS011;8594;52.052;8.354;2023-03-05T07:33:56;8.07;;;3.10;;
16954;SDS011;8594;52.052;8.354;2023-03-05T07:36:24;12.60;;;3.03;;
16954;SDS011;8594;52.052;8.354;2023-03-05T07:38:52;10.07;;;2.80;;
16954;SDS011;8594;52.052;8.354;2023-03-05T07:41:19;7.47;;;3.33;;
16954;SDS011;8594;52.052;8.354;2023-03-05T07:43:47;6.73;;;2.83;;
16954;SDS011;8594;52.052;8.354;2023-03-05T07:46:18;9.63;;;2.63;;
16954;SDS011;8594;52.052;8.354;2023-03-05T07:48:49;10.40;;;3.17;;
16954;SDS011;8594;52.052;8.354;2023-03-05T07:51:17;8.17;;;2.93;;
16954;SDS011;8594;52.052;8.354;2023-03-05T07:53:45;10.13;;;2.60;;
16954;SDS011;8594;52.052;8.354;2023-03-05T07:56:19;9.23;;;2.83;;
16954;SDS011;8594;52.052;8.354;2023-03-05T07:58:48;8.50;;;3.03;;
16954;SDS011;8594;52.052;8.354;2023-03-05T08:01:15;6.10;;;2.80;;
16954;SDS011;8594;52.052;8.354;2023-03-05T08:03:42;9.13;;;3.63;;
16954;SDS011;8594;52.052;8.354;2023-03-05T08:06:11;10.20;;;3.00;;
16954;SDS011;8594;52.052;8.354;2023-03-05T08:08:38;8.53;;;2.83;;
16954;SDS011;8594;52.052;8.354;2023-03-05T08:11:05;6.77;;;2.83;;
16954;SDS011;8594;52.052;8.354;2023-03-05T08:13:35;6.67;;;2.83;;
16954;SDS011;8594;52.052;8.354;2023-03-05T08:16:03;10.90;;;3.00;;
16954;SDS011;8594;52.052;8.354;2023-03-05T08:18:32;9.33;;;2.70;;
16954;SDS011;8594;52.052;8.354;2023-03-05T08:20:59;5.47;;;2.80;;
16954;SDS011;8594;52.052;8.354;2023-03-05T08:23:28;8.07;;;3.00;;
16954;SDS011;8594;52.052;8.354;2023-03-05T08:25:55;8.33;;;2.77;;
16954;SDS011;8594;52.052;8.354;2023-03-05T08:28:22;6.90;;;2.73;;
16954;SDS011;8594;52.052;8.354;2023-03-05T08:30:49;7.50;;;2.43;;
16954;SDS011;8594;52.052;8.354;2023-03-05T08:33:16;7.10;;;2.93;;
16954;SDS011;8594;52.052;8.354;2023-03-05T08:35:43;8.83;;;2.60;;
16954;SDS011;8594;52.052;8.354;2023-03-05T08:38:11;6.53;;;2.67;;
16954;SDS011;8594;52.052;8.354;2023-03-05T08:40:39;8.87;;;3.00;;
16954;SDS011;8594;52.052;8.354;2023-03-05T08:43:07;6.23;;;2.30;;
16954;SDS011;8594;52.052;8.354;2023-03-05T08:45:34;6.70;;;2.37;;
16954;SDS011;8594;52.052;8.354;2023-03-05T08:48:01;10.33;;;2.57;;
16954;SDS011;8594;52.052;8.354;2023-03-05T08:50:28;7.13;;;3.00;;
16954;SDS011;8594;52.052;8.354;2023-03-05T08:52:55;6.63;;;2.90;;
16954;SDS011;8594;52.052;8.354;2023-03-05T08:55:21;7.23;;;3.17;;
16954;SDS011;8594;52.052;8.354;2023-03-05T08:57:50;6.37;;;2.70;;
16954;SDS011;8594;52.052;8.354;2023-03-05T09:00:17;7.43;;;2.53;;
16954;SDS011;8594;52.052;8.354;2023-03-05T09:02:44;10.00;;;2.60;;
16954;SDS011;8594;52.052;8.354;2023-03-05T09:05:11;5.10;;;2.37;;
16954;SDS011;8594;52.052;8.354;2023-03-05T09:07:40;9.47;;;2.30;;
16954;SDS011;8594;52.052;8.354;2023-03-05T09:10:07;7.23;;;2.97;;
16954;SDS011;8594;52.052;8.354;2023-03-05T09:12:37;4.53;;;2.60;;
16954;SDS011;8594;52.052;8.354;2023-03-05T09:15:06;9.70;;;2.87;;
16954;SDS011;8594;52.052;8.354;2023-03-05T09:17:36;12.03;;;2.57;;
16954;SDS011;8594;52.052;8.354;2023-03-05T09:20:06;6.20;;;2.43;;
16954;SDS011;8594;52.052;8.354;2023-03-05T09:22:39;10.70;;;2.47;;
16954;SDS011;8594;52.052;8.354;2023-03-05T09:25:10;6.27;;;2.50;;
16954;SDS011;8594;52.052;8.354;2023-03-05T09:27:37;5.80;;;2.40;;
16954;SDS011;8594;52.052;8.354;2023-03-05T09:30:06;4.17;;;2.20;;
16954;SDS011;8594;52.052;8.354;2023-03-05T09:32:34;5.80;;;2.53;;
16954;SDS011;8594;52.052;8.354;2023-03-05T09:35:01;11.93;;;2.43;;
16954;SDS011;8594;52.052;8.354;2023-03-05T09:37:29;5.97;;;2.50;;
16954;SDS011;8594;52.052;8.354;2023-03-05T09:39:56;5.27;;;2.40;;
16954;SDS011;8594;52.052;8.354;2023-03-05T09:42:36;5.37;;;2.17;;
16954;SDS011;8594;52.052;8.354;2023-03-05T09:45:28;8.20;;;2.30;;
16954;SDS011;8594;52.052;8.354;2023-03-05T09:48:05;7.87;;;2.33;;
16954;SDS011;8594;52.052;8.354;2023-03-05T09:50:43;4.33;;;1.97;;
16954;SDS011;8594;52.052;8.354;2023-03-05T09:53:17;3.70;;;2.30;;
16954;SDS011;8594;52.052;8.354;2023-03-05T09:55:57;8.40;;;2.30;;
16954;SDS011;8594;52.052;8.354;2023-03-05T09:58:30;4.63;;;2.00;;
16954;SDS011;8594;52.052;8.354;2023-03-05T10:01:05;3.40;;;1.97;;
16954;SDS011;8594;52.052;8.354;2023-03-05T10:03:40;3.47;;;2.03;;
16954;SDS011;8594;52.052;8.354;2023-03-05T10:06:21;5.20;;;2.17;;
16954;SDS011;8594;52.052;8.354;2023-03-05T10:08:52;3.73;;;2.03;;
16954;SDS011;8594;52.052;8.354;2023-03-05T10:11:29;7.13;;;2.33;;
16954;SDS011;8594;52.052;8.354;2023-03-05T10:14:10;7.27;;;2.80;;
16954;SDS011;8594;52.052;8.354;2023-03-05T10:20:25;4.13;;;2.87;;
16954;SDS011;8594;52.052;8.354;2023-03-05T10:23:20;11.17;;;3.07;;
16954;SDS011;8594;52.052;8.354;2023-03-05T10:25:57;7.90;;;3.23;;
16954;SDS011;8594;52.052;8.354;2023-03-05T10:28:52;6.43;;;2.20;;
16954;SDS011;8594;52.052;8.354;2023-03-05T10:31:45;5.27;;;2.53;;
16954;SDS011;8594;52.052;8.354;2023-03-05T10:34:34;5.33;;;2.00;;
16954;SDS011;8594;52.052;8.354;2023-03-05T10:37:36;7.13;;;2.57;;
16954;SDS011;8594;52.052;8.354;2023-03-05T10:40:29;7.43;;;2.60;;
16954;SDS011;8594;52.052;8.354;2023-03-05T10:43:06;7.93;;;3.20;;
16954;SDS011;8594;52.052;8.354;2023-03-05T10:45:49;7.77;;;2.87;;
16954;SDS011;8594;52.052;8.354;2023-03-05T10:48:23;5.20;;;2.40;;
16954;SDS011;8594;52.052;8.354;2023-03-05T10:51:00;3.80;;;2.47;;
16954;SDS011;8594;52.052;8.354;2023-03-05T10:53:41;5.60;;;2.27;;
16954;SDS011;8594;52.052;8.354;2023-03-05T10:56:20;18.33;;;2.40;;
16954;SDS011;8594;52.052;8.354;2023-03-05T10:58:50;6.30;;;2.27;;
16954;SDS011;8594;52.052;8.354;2023-03-05T11:01:19;4.30;;;2.10;;
16954;SDS011;8594;52.052;8.354;2023-03-05T11:03:51;2.60;;;1.73;;
16954;SDS011;8594;52.052;8.354;2023-03-05T11:06:29;7.73;;;2.03;;
16954;SDS011;8594;52.052;8.354;2023-03-05T11:09:14;11.20;;;2.70;;
16954;SDS011;8594;52.052;8.354;2023-03-05T11:12:00;5.47;;;2.20;;
16954;SDS011;8594;52.052;8.354;2023-03-05T11:14:39;5.07;;;2.47;;
16954;SDS011;8594;52.052;8.354;2023-03-05T11:17:28;5.87;;;2.00;;
16954;SDS011;8594;52.052;8.354;2023-03-05T11:23:10;5.80;;;2.27;;
16954;SDS011;8594;52.052;8.354;2023-03-05T11:25:49;7.17;;;2.23;;
16954;SDS011;8594;52.052;8.354;2023-03-05T11:28:21;4.90;;;2.57;;
16954;SDS011;8594;52.052;8.354;2023-03-05T11:30:55;5.80;;;2.20;;
16954;SDS011;8594;52.052;8.354;2023-03-05T11:33:32;5.77;;;2.20;;
16954;SDS011;8594;52.052;8.354;2023-03-05T11:39:01;7.07;;;2.30;;
16954;SDS011;8594;52.052;8.354;2023-03-05T11:41:37;6.23;;;2.40;;
16954;SDS011;8594;52.052;8.354;2023-03-05T11:44:09;4.17;;;1.97;;
16954;SDS011;8594;52.052;8.354;2023-03-05T11:46:42;4.37;;;1.70;;
16954;SDS011;8594;52.052;8.354;2023-03-05T11:49:13;4.80;;;2.30;;
16954;SDS011;8594;52.052;8.354;2023-03-05T11:51:46;5.53;;;1.73;;
16954;SDS011;8594;52.052;8.354;2023-03-05T11:54:25;4.83;;;1.87;;
16954;SDS011;8594;52.052;8.354;2023-03-05T11:57:01;4.33;;;1.80;;
16954;SDS011;8594;52.052;8.354;2023-03-05T11:59:33;4.77;;;2.07;;
16954;SDS011;8594;52.052;8.354;2023-03-05T12:02:08;4.50;;;1.87;;
16954;SDS011;8594;52.052;8.354;2023-03-05T12:04:43;4.70;;;1.70;;
16954;SDS011;8594;52.052;8.354;2023-03-05T12:07:11;5.53;;;2.00;;
16954;SDS011;8594;52.052;8.354;2023-03-05T12:09:44;9.57;;;1.70;;
16954;SDS011;8594;52.052;8.354;2023-03-05T12:12:17;5.30;;;1.50;;
16954;SDS011;8594;52.052;8.354;2023-03-05T12:15:01;3.50;;;1.70;;
16954;SDS011;8594;52.052;8.354;2023-03-05T12:17:53;5.87;;;2.80;;
16954;SDS011;8594;52.052;8.354;2023-03-05T12:20:33;5.93;;;2.60;;
16954;SDS011;8594;52.052;8.354;2023-03-05T12:23:12;7.40;;;2.00;;
16954;SDS011;8594;52.052;8.354;2023-03-05T12:25:45;3.63;;;1.77;;
16954;SDS011;8594;52.052;8.354;2023-03-05T12:28:14;10.40;;;2.30;;
16954;SDS011;8594;52.052;8.354;2023-03-05T12:31:03;5.23;;;1.63;;
16954;SDS011;8594;52.052;8.354;2023-03-05T12:33:32;4.47;;;1.90;;
16954;SDS011;8594;52.052;8.354;2023-03-05T12:39:00;7.17;;;2.10;;
16954;SDS011;8594;52.052;8.354;2023-03-05T12:45:24;8.00;;;3.20;;
16954;SDS011;8594;52.052;8.354;2023-03-05T12:51:12;5.67;;;2.37;;
16954;SDS011;8594;52.052;8.354;2023-03-05T12:53:54;4.17;;;1.90;;
16954;SDS011;8594;52.052;8.354;2023-03-05T12:56:21;7.30;;;1.90;;
16954;SDS011;8594;52.052;8.354;2023-03-05T12:58:58;6.57;;;1.70;;
16954;SDS011;8594;52.052;8.354;2023-03-05T13:01:37;6.77;;;2.10;;
16954;SDS011;8594;52.052;8.354;2023-03-05T13:04:13;6.90;;;2.03;;
16954;SDS011;8594;52.052;8.354;2023-03-05T13:06:45;7.87;;;2.03;;
16954;SDS011;8594;52.052;8.354;2023-03-05T13:09:23;4.63;;;2.30;;
16954;SDS011;8594;52.052;8.354;2023-03-05T13:11:53;3.83;;;1.90;;
16954;SDS011;8594;52.052;8.354;2023-03-05T13:14:26;3.30;;;1.60;;
16954;SDS011;8594;52.052;8.354;2023-03-05T13:16:58;3.07;;;1.50;;
16954;SDS011;8594;52.052;8.354;2023-03-05T13:19:26;3.07;;;1.80;;
16954;SDS011;8594;52.052;8.354;2023-03-05T13:21:58;7.07;;;2.13;;
16954;SDS011;8594;52.052;8.354;2023-03-05T13:24:28;3.77;;;1.60;;
16954;SDS011;8594;52.052;8.354;2023-03-05T13:26:56;5.20;;;1.60;;
16954;SDS011;8594;52.052;8.354;2023-03-05T13:29:27;4.53;;;2.03;;
16954;SDS011;8594;52.052;8.354;2023-03-05T13:31:55;6.77;;;1.83;;
16954;SDS011;8594;52.052;8.354;2023-03-05T13:34:25;12.17;;;2.87;;
16954;SDS011;8594;52.052;8.354;2023-03-05T13:36:55;2.70;;;1.50;;
16954;SDS011;8594;52.052;8.354;2023-03-05T13:39:26;6.93;;;1.83;;
16954;SDS011;8594;52.052;8.354;2023-03-05T13:41:58;4.77;;;1.50;;
16954;SDS011;8594;52.052;8.354;2023-03-05T13:44:30;6.90;;;2.17;;
16954;SDS011;8594;52.052;8.354;2023-03-05T13:47:06;8.40;;;2.30;;
16954;SDS011;8594;52.052;8.354;2023-03-05T13:49:39;4.43;;;1.60;;
16954;SDS011;8594;52.052;8.354;2023-03-05T13:52:06;4.40;;;1.70;;
16954;SDS011;8594;52.052;8.354;2023-03-05T13:54:32;1.90;;;1.70;;
16954;SDS011;8594;52.052;8.354;2023-03-05T13:57:01;4.53;;;1.63;;
16954;SDS011;8594;52.052;8.354;2023-03-05T13:59:32;5.43;;;1.87;;
16954;SDS011;8594;52.052;8.354;2023-03-05T14:02:03;4.93;;;1.70;;
16954;SDS011;8594;52.052;8.354;2023-03-05T14:04:44;5.80;;;1.97;;
16954;SDS011;8594;52.052;8.354;2023-03-05T14:07:24;3.37;;;1.60;;
16954;SDS011;8594;52.052;8.354;2023-03-05T14:09:57;4.03;;;1.70;;
16954;SDS011;8594;52.052;8.354;2023-03-05T14:12:27;7.70;;;1.80;;
16954;SDS011;8594;52.052;8.354;2023-03-05T14:15:02;6.23;;;1.57;;
16954;SDS011;8594;52.052;8.354;2023-03-05T14:17:44;2.57;;;1.67;;
16954;SDS011;8594;52.052;8.354;2023-03-05T14:20:17;5.30;;;1.50;;
16954;SDS011;8594;52.052;8.354;2023-03-05T14:22:49;7.70;;;1.60;;
16954;SDS011;8594;52.052;8.354;2023-03-05T14:25:25;3.53;;;1.63;;
16954;SDS011;8594;52.052;8.354;2023-03-05T14:28:00;6.67;;;1.77;;
16954;SDS011;8594;52.052;8.354;2023-03-05T14:30:31;2.70;;;1.37;;
16954;SDS011;8594;52.052;8.354;2023-03-05T14:33:00;6.73;;;1.90;;
16954;SDS011;8594;52.052;8.354;2023-03-05T14:35:29;4.73;;;1.53;;
16954;SDS011;8594;52.052;8.354;2023-03-05T14:37:56;3.43;;;1.50;;
16954;SDS011;8594;52.052;8.354;2023-03-05T14:40:28;5.83;;;1.70;;
16954;SDS011;8594;52.052;8.354;2023-03-05T14:42:57;6.93;;;1.37;;
16954;SDS011;8594;52.052;8.354;2023-03-05T14:45:27;2.70;;;1.13;;
16954;SDS011;8594;52.052;8.354;2023-03-05T14:47:58;7.23;;;1.70;;
16954;SDS011;8594;52.052;8.354;2023-03-05T14:50:29;3.50;;;1.20;;
16954;SDS011;8594;52.052;8.354;2023-03-05T14:53:01;3.10;;;1.30;;
16954;SDS011;8594;52.052;8.354;2023-03-05T14:55:34;6.10;;;1.40;;
16954;SDS011;8594;52.052;8.354;2023-03-05T14:58:03;3.27;;;1.77;;
16954;SDS011;8594;52.052;8.354;2023-03-05T15:00:37;3.13;;;1.27;;
16954;SDS011;8594;52.052;8.354;2023-03-05T15:03:05;4.80;;;1.47;;
16954;SDS011;8594;52.052;8.354;2023-03-05T15:05:36;3.60;;;1.20;;
16954;SDS011;8594;52.052;8.354;2023-03-05T15:08:04;3.90;;;1.10;;
16954;SDS011;8594;52.052;8.354;2023-03-05T15:10:32;10.17;;;1.70;;
16954;SDS011;8594;52.052;8.354;2023-03-05T15:12:59;4.20;;;1.50;;
16954;SDS011;8594;52.052;8.354;2023-03-05T15:15:26;4.77;;;1.43;;
16954;SDS011;8594;52.052;8.354;2023-03-05T15:17:53;3.83;;;1.50;;
16954;SDS011;8594;52.052;8.354;2023-03-05T15:20:22;6.93;;;1.90;;
16954;SDS011;8594;52.052;8.354;2023-03-05T15:22:52;5.17;;;1.30;;
16954;SDS011;8594;52.052;8.354;2023-03-05T15:25:19;9.33;;;1.40;;
16954;SDS011;8594;52.052;8.354;2023-03-05T15:27:50;3.83;;;1.77;;
16954;SDS011;8594;52.052;8.354;2023-03-05T15:30:19;8.57;;;1.83;;
16954;SDS011;8594;52.052;8.354;2023-03-05T15:32:51;3.47;;;1.13;;